createdAt,value
2024-01-25T00:00:46.395Z,1014.19
2024-01-25T00:01:46.441Z,1014.15
2024-01-25T00:02:46.295Z,1014.11
2024-01-25T00:03:46.335Z,1014.14
2024-01-25T00:04:46.411Z,1014.12
2024-01-25T00:05:46.394Z,1014.11
2024-01-25T00:06:46.318Z,1014.10
2024-01-25T00:07:46.245Z,1014.12
2024-01-25T00:08:46.234Z,1014.12
2024-01-25T00:09:46.251Z,1014.12
2024-01-25T00:10:46.191Z,1014.16
2024-01-25T00:11:46.203Z,1014.12
2024-01-25T00:12:46.202Z,1014.16
2024-01-25T00:13:46.164Z,1014.12
2024-01-25T00:14:46.161Z,1014.15
2024-01-25T00:15:46.163Z,1014.10
2024-01-25T00:16:46.146Z,1014.12
2024-01-25T00:17:46.195Z,1014.13
2024-01-25T00:18:46.296Z,1014.21
2024-01-25T00:19:46.191Z,1014.20
2024-01-25T00:20:46.079Z,1014.23
2024-01-25T00:21:46.203Z,1014.21
2024-01-25T00:22:46.091Z,1014.16
2024-01-25T00:23:46.057Z,1014.14
2024-01-25T00:24:46.056Z,1014.18
2024-01-25T00:25:46.029Z,1014.16
2024-01-25T00:26:46.039Z,1014.19
2024-01-25T00:27:46.340Z,1014.17
2024-01-25T00:28:45.993Z,1014.15
2024-01-25T00:29:45.988Z,1014.20
2024-01-25T00:30:45.996Z,1014.17
2024-01-25T00:31:45.942Z,1014.22
2024-01-25T00:32:46.005Z,1014.22
2024-01-25T00:33:46.195Z,1014.21
2024-01-25T00:34:45.991Z,1014.21
2024-01-25T00:35:45.916Z,1014.16
2024-01-25T00:36:45.951Z,1014.19
2024-01-25T00:37:45.877Z,1014.16
2024-01-25T00:38:45.891Z,1014.16
2024-01-25T00:39:45.946Z,1014.20
2024-01-25T00:40:45.866Z,1014.19
2024-01-25T00:41:45.835Z,1014.22
2024-01-25T00:42:45.942Z,1014.27
2024-01-25T00:43:45.840Z,1014.29
2024-01-25T00:44:45.808Z,1014.30
2024-01-25T00:45:45.844Z,1014.27
2024-01-25T00:46:45.778Z,1014.36
2024-01-25T00:47:45.781Z,1014.27
2024-01-25T00:48:46.016Z,1014.33
2024-01-25T00:49:45.863Z,1014.37
2024-01-25T00:50:45.728Z,1014.34
2024-01-25T00:51:45.763Z,1014.35
2024-01-25T00:52:45.706Z,1014.33
2024-01-25T00:53:45.704Z,1014.31
2024-01-25T00:54:45.729Z,1014.31
2024-01-25T00:55:45.664Z,1014.30
2024-01-25T00:56:45.674Z,1014.31
2024-01-25T00:57:45.698Z,1014.34
2024-01-25T00:58:45.651Z,1014.29
2024-01-25T00:59:45.650Z,1014.26
2024-01-25T01:00:45.668Z,1014.30
2024-01-25T01:01:45.623Z,1014.30
2024-01-25T01:02:45.590Z,1014.24
2024-01-25T01:03:45.676Z,1014.31
2024-01-25T01:04:47.862Z,1014.27
2024-01-25T01:05:45.645Z,1014.32
2024-01-25T01:06:45.654Z,1014.28
2024-01-25T01:07:45.636Z,1014.29
2024-01-25T01:08:45.518Z,1014.24
2024-01-25T01:09:45.535Z,1014.24
2024-01-25T01:10:45.499Z,1014.27
2024-01-25T01:11:45.517Z,1014.26
2024-01-25T01:12:45.520Z,1014.28
2024-01-25T01:13:45.453Z,1014.22
2024-01-25T01:14:45.439Z,1014.24
2024-01-25T01:15:45.450Z,1014.28
2024-01-25T01:16:45.421Z,1014.19
2024-01-25T01:17:45.472Z,1014.21
2024-01-25T01:18:45.565Z,1014.22
2024-01-25T01:19:45.503Z,1014.18
2024-01-25T01:20:45.384Z,1014.15
2024-01-25T01:21:45.410Z,1014.19
2024-01-25T01:22:45.354Z,1014.24
2024-01-25T01:23:45.339Z,1014.23
2024-01-25T01:24:45.385Z,1014.18
2024-01-25T01:25:45.316Z,1014.22
2024-01-25T01:26:45.310Z,1014.22
2024-01-25T01:27:45.295Z,1014.22
2024-01-25T01:28:45.290Z,1014.27
2024-01-25T01:29:45.286Z,1014.34
2024-01-25T01:30:45.299Z,1014.37
2024-01-25T01:31:45.244Z,1014.46
2024-01-25T01:32:45.391Z,1014.41
2024-01-25T01:33:45.367Z,1014.29
2024-01-25T01:34:45.407Z,1014.37
2024-01-25T01:35:45.238Z,1014.33
2024-01-25T01:36:45.236Z,1014.35
2024-01-25T01:37:45.196Z,1014.37
2024-01-25T01:38:45.163Z,1014.45
2024-01-25T01:39:45.193Z,1014.40
2024-01-25T01:40:45.139Z,1014.46
2024-01-25T01:41:45.131Z,1014.49
2024-01-25T01:42:45.202Z,1014.49
2024-01-25T01:43:45.101Z,1014.45
2024-01-25T01:44:45.101Z,1014.47
2024-01-25T01:45:45.162Z,1014.44
2024-01-25T01:46:45.072Z,1014.46
2024-01-25T01:47:45.213Z,1014.47
2024-01-25T01:48:45.281Z,1014.42
2024-01-25T01:49:45.355Z,1014.48
2024-01-25T01:50:45.071Z,1014.55
2024-01-25T01:51:45.405Z,1014.47
2024-01-25T01:52:45.011Z,1014.53
2024-01-25T01:53:44.995Z,1014.56
2024-01-25T01:54:45.010Z,1014.52
2024-01-25T01:55:44.958Z,1014.58
2024-01-25T01:56:44.944Z,1014.60
2024-01-25T01:57:45.002Z,1014.62
2024-01-25T01:58:44.983Z,1014.56
2024-01-25T01:59:44.917Z,1014.66
2024-01-25T02:00:44.960Z,1014.60
2024-01-25T02:01:44.986Z,1014.59
2024-01-25T02:02:44.894Z,1014.62
2024-01-25T02:03:44.919Z,1014.64
2024-01-25T02:04:45.028Z,1014.64
2024-01-25T02:05:44.887Z,1014.71
2024-01-25T02:06:45.127Z,1014.77
2024-01-25T02:07:44.934Z,1014.75
2024-01-25T02:08:44.807Z,1014.79
2024-01-25T02:09:44.830Z,1014.76
2024-01-25T02:10:44.795Z,1014.74
2024-01-25T02:11:44.758Z,1014.72
2024-01-25T02:12:44.839Z,1014.81
2024-01-25T02:13:44.748Z,1014.78
2024-01-25T02:14:44.735Z,1014.75
2024-01-25T02:15:44.770Z,1014.84
2024-01-25T02:16:44.830Z,1014.83
2024-01-25T02:17:44.712Z,1014.81
2024-01-25T02:18:44.811Z,1014.85
2024-01-25T02:19:44.738Z,1014.84
2024-01-25T02:20:44.666Z,1014.84
2024-01-25T02:21:44.696Z,1014.83
2024-01-25T02:22:44.642Z,1014.88
2024-01-25T02:23:44.659Z,1014.85
2024-01-25T02:24:44.666Z,1014.87
2024-01-25T02:25:44.601Z,1014.91
2024-01-25T02:26:44.583Z,1014.91
2024-01-25T02:27:44.626Z,1014.96
2024-01-25T02:28:44.584Z,1014.90
2024-01-25T02:29:44.550Z,1014.94
2024-01-25T02:30:44.577Z,1014.90
2024-01-25T02:31:44.563Z,1014.93
2024-01-25T02:32:44.598Z,1014.90
2024-01-25T02:33:44.666Z,1014.87
2024-01-25T02:34:44.635Z,1014.88
2024-01-25T02:35:44.494Z,1014.84
2024-01-25T02:36:44.519Z,1014.88
2024-01-25T02:37:44.479Z,1014.84
2024-01-25T02:38:44.443Z,1014.89
2024-01-25T02:39:44.442Z,1014.88
2024-01-25T02:40:44.419Z,1014.88
2024-01-25T02:41:44.424Z,1014.88
2024-01-25T02:42:44.478Z,1014.90
2024-01-25T02:43:44.383Z,1014.96
2024-01-25T02:44:44.381Z,1014.95
2024-01-25T02:45:44.400Z,1014.94
2024-01-25T02:46:44.357Z,1014.88
2024-01-25T02:47:44.541Z,1014.95
2024-01-25T02:48:44.491Z,1014.92
2024-01-25T02:49:44.759Z,1014.97
2024-01-25T02:50:44.305Z,1014.92
2024-01-25T02:51:44.292Z,1014.90
2024-01-25T02:52:44.296Z,1014.93
2024-01-25T02:53:44.276Z,1014.87
2024-01-25T02:54:44.298Z,1014.95
2024-01-25T02:55:44.259Z,1014.99
2024-01-25T02:56:44.234Z,1015.01
2024-01-25T02:57:44.236Z,1015.01
2024-01-25T02:58:51.290Z,1015.05
2024-01-25T02:59:44.199Z,1015.07
2024-01-25T03:00:44.346Z,1015.06
2024-01-25T03:01:44.302Z,1015.07
2024-01-25T03:02:44.158Z,1015.06
2024-01-25T03:03:44.189Z,1015.12
2024-01-25T03:04:44.286Z,1015.08
2024-01-25T03:05:44.334Z,1015.06
2024-01-25T03:06:44.330Z,1015.09
2024-01-25T03:07:44.155Z,1015.10
2024-01-25T03:08:44.097Z,1015.14
2024-01-25T03:09:44.102Z,1015.08
2024-01-25T03:10:44.071Z,1015.13
2024-01-25T03:11:44.070Z,1015.14
2024-01-25T03:12:44.117Z,1015.17
2024-01-25T03:13:44.029Z,1015.16
2024-01-25T03:14:44.036Z,1015.15
2024-01-25T03:15:44.080Z,1015.21
2024-01-25T03:16:44.009Z,1015.23
2024-01-25T03:17:44.043Z,1015.21
2024-01-25T03:18:44.096Z,1015.21
2024-01-25T03:19:44.138Z,1015.20
2024-01-25T03:20:43.947Z,1015.22
2024-01-25T03:21:43.975Z,1015.21
2024-01-25T03:22:43.932Z,1015.19
2024-01-25T03:23:43.937Z,1015.25
2024-01-25T03:24:43.954Z,1015.25
2024-01-25T03:25:43.904Z,1015.26
2024-01-25T03:26:43.889Z,1015.30
2024-01-25T03:27:43.889Z,1015.31
2024-01-25T03:28:43.858Z,1015.34
2024-01-25T03:29:43.876Z,1015.33
2024-01-25T03:30:43.847Z,1015.36
2024-01-25T03:31:43.819Z,1015.30
2024-01-25T03:32:43.868Z,1015.31
2024-01-25T03:33:44.104Z,1015.30
2024-01-25T03:34:43.917Z,1015.36
2024-01-25T03:35:43.772Z,1015.40
2024-01-25T03:36:43.807Z,1015.39
2024-01-25T03:37:43.749Z,1015.40
2024-01-25T03:38:43.738Z,1015.33
2024-01-25T03:39:43.799Z,1015.36
2024-01-25T03:40:45.530Z,1015.39
2024-01-25T03:41:43.731Z,1015.36
2024-01-25T03:42:54.229Z,1015.37
2024-01-25T03:43:45.064Z,1015.39
2024-01-25T03:44:43.686Z,1015.36
2024-01-25T03:45:43.709Z,1015.39
2024-01-25T03:46:43.665Z,1015.33
2024-01-25T03:47:43.673Z,1015.32
2024-01-25T03:48:43.696Z,1015.25
2024-01-25T03:49:43.738Z,1015.31
2024-01-25T03:50:43.676Z,1015.32
2024-01-25T03:51:43.645Z,1015.33
2024-01-25T03:52:43.586Z,1015.32
2024-01-25T03:53:43.561Z,1015.30
2024-01-25T03:54:43.601Z,1015.30
2024-01-25T03:55:43.547Z,1015.26
2024-01-25T03:56:43.576Z,1015.26
2024-01-25T03:57:43.619Z,1015.32
2024-01-25T03:58:43.595Z,1015.38
2024-01-25T03:59:43.518Z,1015.43
2024-01-25T04:00:43.566Z,1015.42
2024-01-25T04:01:43.518Z,1015.44
2024-01-25T04:02:43.456Z,1015.49
2024-01-25T04:03:43.610Z,1015.47
2024-01-25T04:04:43.464Z,1015.56
2024-01-25T04:05:43.485Z,1015.53
2024-01-25T04:06:43.451Z,1015.57
2024-01-25T04:07:43.400Z,1015.56
2024-01-25T04:08:43.400Z,1015.55
2024-01-25T04:09:43.430Z,1015.56
2024-01-25T04:10:43.384Z,1015.59
2024-01-25T04:11:43.379Z,1015.59
2024-01-25T04:12:43.401Z,1015.58
2024-01-25T04:13:43.323Z,1015.56
2024-01-25T04:14:43.318Z,1015.57
2024-01-25T04:15:43.388Z,1015.60
2024-01-25T04:16:43.309Z,1015.55
2024-01-25T04:17:43.358Z,1015.62
2024-01-25T04:18:43.425Z,1015.63
2024-01-25T04:19:43.364Z,1015.61
2024-01-25T04:20:43.375Z,1015.65
2024-01-25T04:21:43.326Z,1015.65
2024-01-25T04:22:43.241Z,1015.68
2024-01-25T04:23:43.211Z,1015.69
2024-01-25T04:24:43.272Z,1015.68
2024-01-25T04:25:43.290Z,1015.61
2024-01-25T04:26:43.177Z,1015.67
2024-01-25T04:27:43.213Z,1015.68
2024-01-25T04:28:43.169Z,1015.63
2024-01-25T04:29:43.139Z,1015.61
2024-01-25T04:30:43.187Z,1015.55
2024-01-25T04:31:43.120Z,1015.62
2024-01-25T04:32:43.185Z,1015.57
2024-01-25T04:33:46.823Z,1015.59
2024-01-25T04:34:44.266Z,1015.60
2024-01-25T04:35:43.137Z,1015.56
2024-01-25T04:36:43.151Z,1015.60
2024-01-25T04:37:43.052Z,1015.56
2024-01-25T04:38:43.043Z,1015.56
2024-01-25T04:39:43.108Z,1015.56
2024-01-25T04:40:43.053Z,1015.59
2024-01-25T04:41:43.002Z,1015.59
2024-01-25T04:42:43.059Z,1015.57
2024-01-25T04:43:42.988Z,1015.56
2024-01-25T04:44:42.981Z,1015.50
2024-01-25T04:45:43.006Z,1015.50
2024-01-25T04:46:42.976Z,1015.47
2024-01-25T04:47:42.976Z,1015.49
2024-01-25T04:48:43.401Z,1015.46
2024-01-25T04:49:43.004Z,1015.49
2024-01-25T04:50:42.953Z,1015.48
2024-01-25T04:51:42.986Z,1015.48
2024-01-25T04:52:42.902Z,1015.43
2024-01-25T04:53:42.860Z,1015.49
2024-01-25T04:54:42.877Z,1015.46
2024-01-25T04:55:42.842Z,1015.52
2024-01-25T04:56:42.831Z,1015.51
2024-01-25T04:57:42.865Z,1015.45
2024-01-25T04:58:42.818Z,1015.44
2024-01-25T04:59:42.795Z,1015.45
2024-01-25T05:00:42.913Z,1015.39
2024-01-25T05:01:42.874Z,1015.45
2024-01-25T05:02:42.761Z,1015.43
2024-01-25T05:03:42.975Z,1015.46
2024-01-25T05:04:46.120Z,1015.53
2024-01-25T05:05:42.717Z,1015.54
2024-01-25T05:06:42.736Z,1015.55
2024-01-25T05:07:42.815Z,1015.59
2024-01-25T05:08:42.866Z,1015.56
2024-01-25T05:09:42.740Z,1015.54
2024-01-25T05:10:42.684Z,1015.58
2024-01-25T05:11:42.653Z,1015.58
2024-01-25T05:12:42.693Z,1015.54
2024-01-25T05:13:42.623Z,1015.60
2024-01-25T05:14:42.652Z,1015.63
2024-01-25T05:15:42.650Z,1015.61
2024-01-25T05:16:42.629Z,1015.56
2024-01-25T05:17:42.631Z,1015.57
2024-01-25T05:18:42.879Z,1015.61
2024-01-25T05:19:42.747Z,1015.58
2024-01-25T05:20:42.586Z,1015.57
2024-01-25T05:21:42.609Z,1015.55
2024-01-25T05:22:42.567Z,1015.55
2024-01-25T05:23:42.592Z,1015.55
2024-01-25T05:24:42.530Z,1015.49
2024-01-25T05:25:42.599Z,1015.51
2024-01-25T05:26:42.479Z,1015.50
2024-01-25T05:27:42.574Z,1015.56
2024-01-25T05:28:42.472Z,1015.56
2024-01-25T05:29:42.452Z,1015.51
2024-01-25T05:30:42.477Z,1015.58
2024-01-25T05:31:42.493Z,1015.58
2024-01-25T05:32:42.488Z,1015.59
2024-01-25T05:33:42.674Z,1015.60
2024-01-25T05:34:42.542Z,1015.54
2024-01-25T05:35:42.417Z,1015.60
2024-01-25T05:36:42.435Z,1015.60
2024-01-25T05:37:42.363Z,1015.57
2024-01-25T05:38:42.340Z,1015.59
2024-01-25T05:39:42.379Z,1015.56
2024-01-25T05:40:42.326Z,1015.61
2024-01-25T05:41:42.335Z,1015.59
2024-01-25T05:42:42.379Z,1015.61
2024-01-25T05:43:42.289Z,1015.61
2024-01-25T05:44:42.272Z,1015.61
2024-01-25T05:45:42.283Z,1015.61
2024-01-25T05:46:42.251Z,1015.60
2024-01-25T05:47:42.292Z,1015.67
2024-01-25T05:48:42.508Z,1015.64
2024-01-25T05:49:42.305Z,1015.63
2024-01-25T05:50:42.210Z,1015.68
2024-01-25T05:51:42.232Z,1015.76
2024-01-25T05:52:42.181Z,1015.70
2024-01-25T05:53:42.183Z,1015.68
2024-01-25T05:54:42.185Z,1015.69
2024-01-25T05:55:42.166Z,1015.69
2024-01-25T05:56:42.139Z,1015.77
2024-01-25T05:57:42.138Z,1015.72
2024-01-25T05:58:42.138Z,1015.70
2024-01-25T05:59:42.098Z,1015.71
2024-01-25T06:00:42.200Z,1015.73
2024-01-25T06:01:42.136Z,1015.69
2024-01-25T06:02:42.051Z,1015.73
2024-01-25T06:03:42.171Z,1015.68
2024-01-25T06:04:42.475Z,1015.70
2024-01-25T06:05:42.220Z,1015.73
2024-01-25T06:06:42.157Z,1015.74
2024-01-25T06:07:42.265Z,1015.76
2024-01-25T06:08:42.571Z,1015.70
2024-01-25T06:09:42.026Z,1015.74
2024-01-25T06:10:42.054Z,1015.74
2024-01-25T06:11:41.953Z,1015.73
2024-01-25T06:12:42.096Z,1015.75
2024-01-25T06:13:41.949Z,1015.75
2024-01-25T06:14:41.922Z,1015.73
2024-01-25T06:15:41.978Z,1015.69
2024-01-25T06:16:43.371Z,1015.66
2024-01-25T06:17:41.889Z,1015.72
2024-01-25T06:18:41.951Z,1015.65
2024-01-25T06:19:41.973Z,1015.71
2024-01-25T06:20:41.932Z,1015.69
2024-01-25T06:21:41.931Z,1015.63
2024-01-25T06:22:41.835Z,1015.71
2024-01-25T06:23:41.818Z,1015.65
2024-01-25T06:24:41.868Z,1015.73
2024-01-25T06:25:41.851Z,1015.77
2024-01-25T06:26:41.777Z,1015.80
2024-01-25T06:27:41.811Z,1015.83
2024-01-25T06:28:41.754Z,1015.85
2024-01-25T06:29:41.747Z,1015.82
2024-01-25T06:30:41.768Z,1015.82
2024-01-25T06:31:41.722Z,1015.86
2024-01-25T06:32:41.767Z,1015.82
2024-01-25T06:33:41.824Z,1015.88
2024-01-25T06:34:41.852Z,1015.89
2024-01-25T06:35:41.701Z,1015.94
2024-01-25T06:36:41.764Z,1015.96
2024-01-25T06:37:41.707Z,1015.97
2024-01-25T06:38:41.633Z,1015.99
2024-01-25T06:39:41.675Z,1016.06
2024-01-25T06:40:41.615Z,1016.04
2024-01-25T06:41:41.603Z,1016.08
2024-01-25T06:42:41.655Z,1016.05
2024-01-25T06:43:41.585Z,1016.04
2024-01-25T06:44:41.578Z,1015.99
2024-01-25T06:45:41.621Z,1016.02
2024-01-25T06:46:41.541Z,1015.95
2024-01-25T06:47:41.604Z,1015.98
2024-01-25T06:48:41.726Z,1016.04
2024-01-25T06:49:41.603Z,1015.98
2024-01-25T06:50:41.693Z,1015.98
2024-01-25T06:51:41.526Z,1016.01
2024-01-25T06:52:41.472Z,1016.02
2024-01-25T06:53:41.469Z,1016.02
2024-01-25T06:54:41.592Z,1016.01
2024-01-25T06:55:41.468Z,1016.12
2024-01-25T06:56:41.427Z,1016.06
2024-01-25T06:57:41.500Z,1016.16
2024-01-25T06:58:41.423Z,1016.12
2024-01-25T06:59:41.399Z,1016.19
2024-01-25T07:00:41.487Z,1016.22
2024-01-25T07:01:41.455Z,1016.23
2024-01-25T07:02:41.424Z,1016.19
2024-01-25T07:03:41.430Z,1016.23
2024-01-25T07:04:41.421Z,1016.24
2024-01-25T07:05:41.334Z,1016.23
2024-01-25T07:06:41.363Z,1016.26
2024-01-25T07:07:41.380Z,1016.24
2024-01-25T07:08:41.286Z,1016.27
2024-01-25T07:09:41.374Z,1016.32
2024-01-25T07:10:41.261Z,1016.34
2024-01-25T07:11:41.259Z,1016.32
2024-01-25T07:12:41.358Z,1016.33
2024-01-25T07:13:41.226Z,1016.31
2024-01-25T07:14:41.240Z,1016.35
2024-01-25T07:15:41.285Z,1016.38
2024-01-25T07:16:41.198Z,1016.33
2024-01-25T07:17:41.228Z,1016.36
2024-01-25T07:18:41.240Z,1016.38
2024-01-25T07:19:41.266Z,1016.39
2024-01-25T07:20:41.362Z,1016.43
2024-01-25T07:21:41.195Z,1016.40
2024-01-25T07:22:41.128Z,1016.44
2024-01-25T07:23:41.115Z,1016.44
2024-01-25T07:24:41.120Z,1016.47
2024-01-25T07:25:41.150Z,1016.44
2024-01-25T07:26:41.082Z,1016.44
2024-01-25T07:27:41.104Z,1016.39
2024-01-25T07:28:41.052Z,1016.43
2024-01-25T07:29:41.057Z,1016.46
2024-01-25T07:30:41.057Z,1016.45
2024-01-25T07:31:41.045Z,1016.43
2024-01-25T07:32:41.069Z,1016.42
2024-01-25T07:33:41.259Z,1016.42
2024-01-25T07:34:41.239Z,1016.45
2024-01-25T07:35:40.994Z,1016.48
2024-01-25T07:36:42.479Z,1016.50
2024-01-25T07:37:40.986Z,1016.43
2024-01-25T07:38:40.940Z,1016.49
2024-01-25T07:39:40.981Z,1016.46
2024-01-25T07:40:40.918Z,1016.49
2024-01-25T07:41:40.900Z,1016.53
2024-01-25T07:42:40.981Z,1016.52
2024-01-25T07:43:40.885Z,1016.49
2024-01-25T07:44:40.874Z,1016.47
2024-01-25T07:45:40.916Z,1016.44
2024-01-25T07:46:40.866Z,1016.48
2024-01-25T07:47:40.885Z,1016.37
2024-01-25T07:48:40.842Z,1016.48
2024-01-25T07:49:40.952Z,1016.41
2024-01-25T07:50:40.993Z,1016.43
2024-01-25T07:51:40.816Z,1016.42
2024-01-25T07:52:40.811Z,1016.47
2024-01-25T07:53:40.796Z,1016.52
2024-01-25T07:54:40.839Z,1016.53
2024-01-25T07:55:40.835Z,1016.60
2024-01-25T07:56:40.728Z,1016.63
2024-01-25T07:57:40.744Z,1016.57
2024-01-25T07:58:40.710Z,1016.56
2024-01-25T07:59:40.725Z,1016.59
2024-01-25T08:00:40.790Z,1016.59
2024-01-25T08:01:40.710Z,1016.57
2024-01-25T08:02:40.661Z,1016.61
2024-01-25T08:03:40.746Z,1016.62
2024-01-25T08:04:40.690Z,1016.62
2024-01-25T08:05:45.330Z,1016.70
2024-01-25T08:06:41.704Z,1016.64
2024-01-25T08:07:40.682Z,1016.67
2024-01-25T08:08:40.606Z,1016.68
2024-01-25T08:09:40.682Z,1016.67
2024-01-25T08:10:40.605Z,1016.71
2024-01-25T08:11:40.547Z,1016.68
2024-01-25T08:12:45.408Z,1016.68
2024-01-25T08:13:41.572Z,1016.68
2024-01-25T08:14:40.564Z,1016.73
2024-01-25T08:15:40.546Z,1016.61
2024-01-25T08:16:40.538Z,1016.63
2024-01-25T08:17:40.618Z,1016.63
2024-01-25T08:18:40.515Z,1016.63
2024-01-25T08:19:40.646Z,1016.64
2024-01-25T08:20:40.752Z,1016.66
2024-01-25T08:21:40.469Z,1016.65
2024-01-25T08:22:40.443Z,1016.64
2024-01-25T08:23:40.413Z,1016.63
2024-01-25T08:24:40.443Z,1016.58
2024-01-25T08:25:40.433Z,1016.59
2024-01-25T08:26:40.370Z,1016.62
2024-01-25T08:27:40.430Z,1016.60
2024-01-25T08:28:40.383Z,1016.61
2024-01-25T08:29:40.362Z,1016.64
2024-01-25T08:30:40.415Z,1016.67
2024-01-25T08:31:40.395Z,1016.62
2024-01-25T08:32:40.424Z,1016.63
2024-01-25T08:33:40.456Z,1016.63
2024-01-25T08:34:40.469Z,1016.66
2024-01-25T08:35:40.405Z,1016.66
2024-01-25T08:36:40.286Z,1016.67
2024-01-25T08:37:40.253Z,1016.69
2024-01-25T08:38:40.257Z,1016.74
2024-01-25T08:39:40.289Z,1016.67
2024-01-25T08:40:40.260Z,1016.64
2024-01-25T08:41:41.970Z,1016.61
2024-01-25T08:42:40.245Z,1016.60
2024-01-25T08:43:40.200Z,1016.59
2024-01-25T08:44:40.220Z,1016.53
2024-01-25T08:45:40.226Z,1016.53
2024-01-25T08:46:40.220Z,1016.51
2024-01-25T08:47:40.162Z,1016.49
2024-01-25T08:48:40.301Z,1016.44
2024-01-25T08:49:40.249Z,1016.46
2024-01-25T08:50:40.198Z,1016.57
2024-01-25T08:51:40.152Z,1016.54
2024-01-25T08:52:40.102Z,1016.62
2024-01-25T08:53:40.067Z,1016.55
2024-01-25T08:54:40.101Z,1016.59
2024-01-25T08:55:40.093Z,1016.58
2024-01-25T08:56:40.048Z,1016.59
2024-01-25T08:57:40.085Z,1016.60
2024-01-25T08:58:40.032Z,1016.58
2024-01-25T08:59:40.016Z,1016.56
2024-01-25T09:00:40.213Z,1016.59
2024-01-25T09:01:40.019Z,1016.54
2024-01-25T09:02:40.067Z,1016.62
2024-01-25T09:03:40.084Z,1016.69
2024-01-25T09:04:40.022Z,1016.66
2024-01-25T09:05:40.026Z,1016.64
2024-01-25T09:06:40.053Z,1016.69
2024-01-25T09:07:40.160Z,1016.69
2024-01-25T09:08:39.963Z,1016.66
2024-01-25T09:09:40.979Z,1016.73
2024-01-25T09:10:40.050Z,1016.72
2024-01-25T09:11:39.916Z,1016.75
2024-01-25T09:12:39.905Z,1016.76
2024-01-25T09:13:45.704Z,1016.73
2024-01-25T09:14:40.825Z,1016.73
2024-01-25T09:15:39.875Z,1016.71
2024-01-25T09:16:39.912Z,1016.76
2024-01-25T09:17:39.951Z,1016.72
2024-01-25T09:18:40.081Z,1016.73
2024-01-25T09:19:40.004Z,1016.74
2024-01-25T09:20:39.812Z,1016.68
2024-01-25T09:21:39.885Z,1016.69
2024-01-25T09:22:39.776Z,1016.65
2024-01-25T09:23:39.717Z,1016.67
2024-01-25T09:24:39.778Z,1016.77
2024-01-25T09:25:39.737Z,1016.70
2024-01-25T09:26:39.722Z,1016.71
2024-01-25T09:27:40.032Z,1016.67
2024-01-25T09:28:39.783Z,1016.68
2024-01-25T09:29:39.655Z,1016.68
2024-01-25T09:30:39.664Z,1016.70
2024-01-25T09:31:39.919Z,1016.64
2024-01-25T09:32:39.705Z,1016.61
2024-01-25T09:33:39.925Z,1016.61
2024-01-25T09:34:40.836Z,1016.63
2024-01-25T09:35:39.782Z,1016.59
2024-01-25T09:36:39.622Z,1016.61
2024-01-25T09:37:39.617Z,1016.59
2024-01-25T09:38:39.585Z,1016.63
2024-01-25T09:39:39.578Z,1016.63
2024-01-25T09:40:39.580Z,1016.63
2024-01-25T09:41:39.511Z,1016.65
2024-01-25T09:42:39.533Z,1016.71
2024-01-25T09:43:39.543Z,1016.70
2024-01-25T09:44:39.463Z,1016.72
2024-01-25T09:45:39.538Z,1016.70
2024-01-25T09:46:39.575Z,1016.77
2024-01-25T09:47:39.509Z,1016.80
2024-01-25T09:48:39.581Z,1016.82
2024-01-25T09:49:39.749Z,1016.84
2024-01-25T09:50:42.211Z,1016.89
2024-01-25T09:51:39.427Z,1016.87
2024-01-25T09:52:39.468Z,1016.99
2024-01-25T09:53:39.360Z,1016.98
2024-01-25T09:54:39.468Z,1017.07
2024-01-25T09:55:39.491Z,1017.13
2024-01-25T09:56:39.328Z,1017.14
2024-01-25T09:57:39.422Z,1017.12
2024-01-25T09:58:39.340Z,1017.14
2024-01-25T09:59:39.298Z,1017.18
2024-01-25T10:00:39.427Z,1017.19
2024-01-25T10:01:39.464Z,1017.10
2024-01-25T10:02:39.406Z,1017.12
2024-01-25T10:03:39.418Z,1017.07
2024-01-25T10:04:39.337Z,1017.03
2024-01-25T10:05:39.443Z,1016.99
2024-01-25T10:06:39.399Z,1016.99
2024-01-25T10:07:39.363Z,1016.94
2024-01-25T10:08:39.194Z,1016.93
2024-01-25T10:09:39.225Z,1016.95
2024-01-25T10:10:39.182Z,1016.96
2024-01-25T10:11:42.987Z,1017.04
2024-01-25T10:12:40.307Z,1017.03
2024-01-25T10:13:39.179Z,1017.08
2024-01-25T10:14:39.107Z,1017.09
2024-01-25T10:15:39.147Z,1017.14
2024-01-25T10:16:39.367Z,1017.14
2024-01-25T10:18:39.324Z,1017.13
2024-01-25T10:19:39.341Z,1017.08
2024-01-25T10:20:39.227Z,1017.09
2024-01-25T10:21:39.352Z,1017.07
2024-01-25T10:22:39.125Z,1017.05
2024-01-25T10:23:39.056Z,1017.09
2024-01-25T10:24:39.086Z,1017.01
2024-01-25T10:25:39.044Z,1017.03
2024-01-25T10:26:38.980Z,1016.96
2024-01-25T10:27:39.007Z,1017.04
2024-01-25T10:28:39.264Z,1016.95
2024-01-25T10:29:39.136Z,1017.00
2024-01-25T10:30:38.973Z,1016.98
2024-01-25T10:31:39.091Z,1016.98
2024-01-25T10:32:38.996Z,1017.02
2024-01-25T10:33:38.979Z,1016.97
2024-01-25T10:34:38.990Z,1016.98
2024-01-25T10:35:39.013Z,1016.93
2024-01-25T10:36:38.888Z,1016.97
2024-01-25T10:37:38.855Z,1016.95
2024-01-25T10:38:38.909Z,1016.90
2024-01-25T10:39:38.867Z,1016.93
2024-01-25T10:40:38.912Z,1016.87
2024-01-25T10:41:38.789Z,1016.90
2024-01-25T10:42:38.887Z,1016.86
2024-01-25T10:43:38.867Z,1016.81
2024-01-25T10:44:38.782Z,1016.84
2024-01-25T10:45:38.788Z,1016.84
2024-01-25T10:46:38.885Z,1016.77
2024-01-25T10:47:38.778Z,1016.78
2024-01-25T10:48:38.805Z,1016.74
2024-01-25T10:49:38.865Z,1016.81
2024-01-25T10:50:38.850Z,1016.77
2024-01-25T10:51:38.698Z,1016.80
2024-01-25T10:52:38.731Z,1016.76
2024-01-25T10:53:38.641Z,1016.65
2024-01-25T10:54:38.706Z,1016.65
2024-01-25T10:55:38.768Z,1016.58
2024-01-25T10:56:38.619Z,1016.58
2024-01-25T10:57:38.622Z,1016.56
2024-01-25T10:58:39.058Z,1016.53
2024-01-25T10:59:38.586Z,1016.53
2024-01-25T11:00:38.663Z,1016.50
2024-01-25T11:01:38.643Z,1016.47
2024-01-25T11:02:38.635Z,1016.47
2024-01-25T11:03:38.616Z,1016.48
2024-01-25T11:04:38.626Z,1016.44
2024-01-25T11:05:38.837Z,1016.49
2024-01-25T11:06:38.656Z,1016.44
2024-01-25T11:07:38.521Z,1016.45
2024-01-25T11:08:38.502Z,1016.41
2024-01-25T11:09:38.505Z,1016.36
2024-01-25T11:10:38.501Z,1016.31
2024-01-25T11:11:38.463Z,1016.34
2024-01-25T11:12:38.494Z,1016.35
2024-01-25T11:13:38.492Z,1016.35
2024-01-25T11:14:41.103Z,1016.29
2024-01-25T11:15:38.625Z,1016.31
2024-01-25T11:16:38.563Z,1016.28
2024-01-25T11:17:38.414Z,1016.25
2024-01-25T11:18:38.516Z,1016.22
2024-01-25T11:19:38.525Z,1016.23
2024-01-25T11:20:38.844Z,1016.24
2024-01-25T11:21:38.407Z,1016.27
2024-01-25T11:22:38.353Z,1016.26
2024-01-25T11:23:38.313Z,1016.33
2024-01-25T11:24:38.348Z,1016.29
2024-01-25T11:25:38.311Z,1016.31
2024-01-25T11:26:38.301Z,1016.35
2024-01-25T11:27:38.317Z,1016.29
2024-01-25T11:28:38.323Z,1016.29
2024-01-25T11:29:40.614Z,1016.28
2024-01-25T11:30:38.288Z,1016.28
2024-01-25T11:31:38.321Z,1016.23
2024-01-25T11:32:38.285Z,1016.24
2024-01-25T11:33:38.333Z,1016.21
2024-01-25T11:34:38.398Z,1016.21
2024-01-25T11:35:38.390Z,1016.24
2024-01-25T11:36:38.199Z,1016.25
2024-01-25T11:37:38.216Z,1016.19
2024-01-25T11:38:38.202Z,1016.22
2024-01-25T11:39:38.249Z,1016.14
2024-01-25T11:40:38.552Z,1016.17
2024-01-25T11:41:38.110Z,1016.15
2024-01-25T11:42:38.151Z,1016.14
2024-01-25T11:43:38.138Z,1016.10
2024-01-25T11:44:38.095Z,1016.08
2024-01-25T11:45:38.102Z,1016.08
2024-01-25T11:46:38.778Z,1016.06
2024-01-25T11:47:38.059Z,1015.98
2024-01-25T11:48:38.215Z,1015.94
2024-01-25T11:49:38.175Z,1015.92
2024-01-25T11:50:38.200Z,1015.87
2024-01-25T11:51:38.181Z,1015.81
2024-01-25T11:52:38.207Z,1015.84
2024-01-25T11:53:37.968Z,1015.82
2024-01-25T11:54:38.058Z,1015.83
2024-01-25T11:55:38.012Z,1015.84
2024-01-25T11:56:37.942Z,1015.80
2024-01-25T11:57:37.951Z,1015.83
2024-01-25T11:58:40.619Z,1015.89
2024-01-25T11:59:37.917Z,1015.84
2024-01-25T12:00:38.169Z,1015.82
2024-01-25T12:01:38.095Z,1015.84
2024-01-25T12:02:38.043Z,1015.84
2024-01-25T12:03:37.904Z,1015.72
2024-01-25T12:04:38.370Z,1015.78
2024-01-25T12:05:38.020Z,1015.84
2024-01-25T12:06:38.326Z,1015.76